createdAt,value
2023-03-03T00:01:33.219Z,101157.91
2023-03-03T00:04:01.402Z,101161.52
2023-03-03T00:06:30.688Z,101158.60
2023-03-03T00:08:58.879Z,101152.58
2023-03-03T00:11:27.244Z,101147.83
2023-03-03T00:13:56.564Z,101148.02
2023-03-03T00:16:26.441Z,101147.19
2023-03-03T00:18:55.551Z,101142.52
2023-03-03T00:21:29.883Z,101141.62
2023-03-03T00:24:18.819Z,101143.09
2023-03-03T00:26:58.462Z,101145.63
2023-03-03T00:29:56.646Z,101139.77
2023-03-03T00:32:29.663Z,101143.36
2023-03-03T00:35:17.879Z,101140.79
2023-03-03T00:37:46.139Z,101135.64
2023-03-03T00:40:26.960Z,101137.34
2023-03-03T00:42:57.116Z,101131.62
2023-03-03T00:45:31.526Z,101124.96
2023-03-03T00:48:00.337Z,101122.88
2023-03-03T00:50:31.991Z,101125.56
2023-03-03T00:53:01.083Z,101123.15
2023-03-03T00:55:30.490Z,101120.40
2023-03-03T00:57:58.762Z,101119.55
2023-03-03T01:00:28.883Z,101122.80
2023-03-03T01:02:57.488Z,101115.20
2023-03-03T01:05:25.939Z,101105.95
2023-03-03T01:07:54.108Z,101098.42
2023-03-03T01:10:22.280Z,101094.65
2023-03-03T01:12:50.370Z,101097.42
2023-03-03T01:15:19.240Z,101096.17
2023-03-03T01:17:47.410Z,101087.52
2023-03-03T01:20:16.411Z,101084.41
2023-03-03T01:22:44.589Z,101079.80
2023-03-03T01:25:12.959Z,101075.20
2023-03-03T01:27:41.129Z,101073.67
2023-03-03T01:30:10.117Z,101071.09
2023-03-03T01:32:38.491Z,101069.72
2023-03-03T01:35:07.383Z,101076.59
2023-03-03T01:37:38.934Z,101073.33
2023-03-03T01:40:11.797Z,101077.73
2023-03-03T01:42:39.986Z,101073.73
2023-03-03T01:45:20.350Z,101068.18
2023-03-03T01:47:54.566Z,101076.06
2023-03-03T01:50:32.151Z,101071.58
2023-03-03T01:53:03.194Z,101069.83
2023-03-03T01:55:34.935Z,101083.20
2023-03-03T01:58:16.426Z,101078.50
2023-03-03T02:00:47.060Z,101071.45
2023-03-03T02:03:15.026Z,101074.92
2023-03-03T02:05:43.517Z,101084.91
2023-03-03T02:08:17.004Z,101086.09
2023-03-03T02:10:46.405Z,101090.54
2023-03-03T02:13:14.587Z,101087.42
2023-03-03T02:15:42.855Z,101092.73
2023-03-03T02:18:13.701Z,101094.17
2023-03-03T02:20:57.326Z,101092.95
2023-03-03T02:23:37.582Z,101094.77
2023-03-03T02:26:19.276Z,101098.98
2023-03-03T02:28:47.454Z,101092.04
2023-03-03T02:31:17.666Z,101092.89
2023-03-03T02:33:48.503Z,101095.30
2023-03-03T02:36:18.007Z,101091.48
2023-03-03T02:39:04.302Z,101089.96
2023-03-03T02:41:45.477Z,101086.50
2023-03-03T02:44:16.291Z,101086.59
2023-03-03T02:46:49.097Z,101084.39
2023-03-03T02:49:21.200Z,101079.61
2023-03-03T02:51:50.327Z,101080.36
2023-03-03T02:54:21.258Z,101076.78
2023-03-03T02:56:50.084Z,101076.23
2023-03-03T02:59:18.551Z,101078.89
2023-03-03T03:01:49.381Z,101073.84
2023-03-03T03:04:21.974Z,101076.23
2023-03-03T03:06:51.681Z,101070.59
2023-03-03T03:09:21.784Z,101063.22
2023-03-03T03:11:51.286Z,101066.83
2023-03-03T03:14:22.026Z,101073.69
2023-03-03T03:16:50.408Z,101077.05
2023-03-03T03:19:18.567Z,101074.43
2023-03-03T03:21:47.057Z,101076.13
2023-03-03T03:24:15.331Z,101077.82
2023-03-03T03:26:47.501Z,101077.48
2023-03-03T03:29:16.273Z,101076.17
2023-03-03T03:31:45.675Z,101079.67
2023-03-03T03:34:14.570Z,101083.25
2023-03-03T03:36:43.252Z,101090.23
2023-03-03T03:39:12.137Z,101095.98
2023-03-03T03:41:42.766Z,101104.02
2023-03-03T03:44:11.349Z,101107.98
2023-03-03T03:46:39.731Z,101115.56
2023-03-03T03:49:08.316Z,101118.36
2023-03-03T03:51:41.493Z,101123.39
2023-03-03T03:54:11.514Z,101124.39
2023-03-03T03:56:41.021Z,101120.26
2023-03-03T03:59:09.618Z,101128.54
2023-03-03T04:01:38.087Z,101134.10
2023-03-03T04:04:06.563Z,101137.81
2023-03-03T04:06:35.762Z,101126.24
2023-03-03T04:09:05.367Z,101127.21
2023-03-03T04:11:33.846Z,101125.27
2023-03-03T04:14:04.175Z,101129.73
2023-03-03T04:16:33.572Z,101123.58
2023-03-03T04:19:01.856Z,101119.11
2023-03-03T04:21:30.223Z,101110.17
2023-03-03T04:24:00.039Z,101114.72
2023-03-03T04:26:29.128Z,101111.71
2023-03-03T04:28:58.930Z,101115.35
2023-03-03T04:31:27.973Z,101112.96
2023-03-03T04:33:56.510Z,101111.77
2023-03-03T04:36:25.711Z,101105.70
2023-03-03T04:38:54.500Z,101108.39
2023-03-03T04:41:23.689Z,101103.58
2023-03-03T04:43:51.866Z,101094.58
2023-03-03T04:46:20.428Z,101095.04
2023-03-03T04:48:49.340Z,101098.97
2023-03-03T04:51:19.246Z,101103.77
2023-03-03T04:53:47.726Z,101098.73
2023-03-03T04:56:16.002Z,101097.34
2023-03-03T04:58:44.173Z,101098.91
2023-03-03T05:01:14.837Z,101097.72
2023-03-03T05:03:43.214Z,101092.08
2023-03-03T05:06:12.069Z,101100.23
2023-03-03T05:08:40.236Z,101100.61
2023-03-03T05:11:08.404Z,101100.23
2023-03-03T05:13:36.592Z,101100.41
2023-03-03T05:16:05.604Z,101095.80
2023-03-03T05:18:33.945Z,101094.23
2023-03-03T05:21:02.218Z,101095.34
2023-03-03T05:23:31.499Z,101091.98
2023-03-03T05:25:59.689Z,101085.59
2023-03-03T05:28:28.065Z,101083.13
2023-03-03T05:30:56.276Z,101084.67
2023-03-03T05:33:24.613Z,101091.18
2023-03-03T05:35:57.009Z,101084.70
2023-03-03T05:38:25.571Z,101091.90
2023-03-03T05:40:54.966Z,101100.98
2023-03-03T05:43:23.242Z,101096.14
2023-03-03T05:45:58.039Z,101090.65
2023-03-03T05:48:26.257Z,101093.92
2023-03-03T05:50:54.425Z,101102.65
2023-03-03T05:53:22.599Z,101108.84
2023-03-03T05:55:50.760Z,101110.00
2023-03-03T05:58:18.834Z,101108.92
2023-03-03T06:00:47.208Z,101116.26
2023-03-03T06:03:15.518Z,101131.67
2023-03-03T06:05:43.716Z,101131.80
2023-03-03T06:08:12.134Z,101127.42
2023-03-03T06:10:40.313Z,101132.31
2023-03-03T06:13:08.893Z,101130.85
2023-03-03T06:15:37.214Z,101137.42
2023-03-03T06:18:05.550Z,101132.13
2023-03-03T06:20:34.021Z,101130.67
2023-03-03T06:23:02.503Z,101128.89
2023-03-03T06:25:30.679Z,101128.25
2023-03-03T06:27:58.847Z,101128.56
2023-03-03T06:30:28.557Z,101138.62
2023-03-03T06:32:57.135Z,101138.58
2023-03-03T06:35:25.463Z,101142.69
2023-03-03T06:37:53.989Z,101147.98
2023-03-03T06:40:22.293Z,101149.15
2023-03-03T06:42:50.751Z,101151.20
2023-03-03T06:45:19.223Z,101154.02
2023-03-03T06:47:47.395Z,101153.10
2023-03-03T06:50:19.457Z,101157.66
2023-03-03T06:52:47.629Z,101167.81
2023-03-03T06:55:23.510Z,101167.90
2023-03-03T06:57:51.656Z,101162.98
2023-03-03T07:00:24.701Z,101163.56
2023-03-03T07:03:14.730Z,101170.90
2023-03-03T07:05:43.930Z,101170.98
2023-03-03T07:08:18.158Z,101169.83
2023-03-03T07:10:47.144Z,101160.91
2023-03-03T07:13:24.630Z,101159.20
2023-03-03T07:15:54.249Z,101158.96
2023-03-03T07:18:33.679Z,101160.27
2023-03-03T07:21:17.713Z,101162.70
2023-03-03T07:23:48.657Z,101174.29
2023-03-03T07:26:22.403Z,101186.47
2023-03-03T07:28:54.942Z,101184.10
2023-03-03T07:31:27.511Z,101178.08
2023-03-03T07:33:56.195Z,101175.24
2023-03-03T07:36:30.861Z,101177.25
2023-03-03T07:39:05.736Z,101175.36
2023-03-03T07:41:35.050Z,101180.14
2023-03-03T07:44:07.114Z,101181.69
2023-03-03T07:46:43.643Z,101178.94
2023-03-03T07:49:22.257Z,101185.40
2023-03-03T07:51:57.829Z,101179.94
2023-03-03T07:54:40.601Z,101179.64
2023-03-03T07:57:11.805Z,101175.80
2023-03-03T07:59:48.879Z,101177.35
2023-03-03T08:02:29.034Z,101174.31
2023-03-03T08:04:57.494Z,101181.83
2023-03-03T08:07:25.790Z,101184.09
2023-03-03T08:09:59.494Z,101177.27
2023-03-03T08:12:42.480Z,101169.21
2023-03-03T08:15:21.325Z,101165.00
2023-03-03T08:17:50.725Z,101158.55
2023-03-03T08:20:50.229Z,101162.95
2023-03-03T08:23:19.859Z,101162.97
2023-03-03T08:25:49.859Z,101166.73
2023-03-03T08:28:19.148Z,101168.48
2023-03-03T08:30:48.147Z,101168.77
2023-03-03T08:33:16.919Z,101164.96
2023-03-03T08:35:46.037Z,101168.92
2023-03-03T08:38:16.336Z,101161.48
2023-03-03T08:40:45.325Z,101166.09
2023-03-03T08:43:17.428Z,101169.30
2023-03-03T08:45:46.590Z,101177.77
2023-03-03T08:48:15.373Z,101180.83
2023-03-03T08:50:44.053Z,101186.33
2023-03-03T08:53:13.559Z,101185.36
2023-03-03T08:55:42.550Z,101188.28
2023-03-03T08:58:10.830Z,101188.91
2023-03-03T09:00:38.999Z,101184.75
2023-03-03T09:03:07.744Z,101186.58
2023-03-03T09:05:38.313Z,101188.83
2023-03-03T09:08:08.026Z,101188.56
2023-03-03T09:10:36.398Z,101187.38
2023-03-03T09:13:13.897Z,101191.12
2023-03-03T09:15:42.270Z,101192.49
2023-03-03T09:18:39.739Z,101203.44
2023-03-03T09:21:24.286Z,101211.52
2023-03-03T09:23:57.589Z,101210.73
2023-03-03T09:26:53.392Z,101213.06
2023-03-03T09:29:29.757Z,101219.67
2023-03-03T09:32:01.283Z,101220.19
2023-03-03T09:34:42.710Z,101222.63
2023-03-03T09:37:24.081Z,101217.14
2023-03-03T09:39:57.681Z,101216.05
2023-03-03T09:42:38.947Z,101215.17
2023-03-03T09:45:18.106Z,101206.54
2023-03-03T09:47:58.638Z,101210.50
2023-03-03T09:50:42.170Z,101213.28
2023-03-03T09:53:28.777Z,101212.89
2023-03-03T09:56:20.194Z,101215.68
2023-03-03T09:58:58.607Z,101215.60
2023-03-03T10:01:41.009Z,101217.48
2023-03-03T10:04:24.524Z,101215.73
2023-03-03T10:07:19.048Z,101220.84
2023-03-03T10:10:03.689Z,101223.60
2023-03-03T10:12:39.447Z,101220.72
2023-03-03T10:15:43.040Z,101218.22
2023-03-03T10:18:33.209Z,101215.89
2023-03-03T10:21:23.219Z,101209.25
2023-03-03T10:23:59.242Z,101206.43
2023-03-03T10:26:44.707Z,101206.52
2023-03-03T10:29:34.527Z,101204.81
2023-03-03T10:32:28.161Z,101200.58
2023-03-03T10:35:24.515Z,101192.08
2023-03-03T10:38:07.752Z,101190.61
2023-03-03T10:40:51.193Z,101192.88
2023-03-03T10:43:32.502Z,101198.09
2023-03-03T10:46:22.753Z,101200.94
2023-03-03T10:49:13.771Z,101204.38
2023-03-03T10:52:12.039Z,101204.96
2023-03-03T10:55:04.897Z,101206.64
2023-03-03T10:57:52.520Z,101200.75
2023-03-03T11:00:26.525Z,101200.02
2023-03-03T11:03:11.494Z,101193.41
2023-03-03T11:05:42.444Z,101188.30
2023-03-03T11:08:19.620Z,101184.50
2023-03-03T11:11:12.461Z,101183.72
2023-03-03T11:13:59.952Z,101178.85
2023-03-03T11:16:37.390Z,101182.39
2023-03-03T11:19:24.696Z,101182.23
2023-03-03T11:22:08.640Z,101180.73
2023-03-03T11:25:08.969Z,101180.31
2023-03-03T11:27:37.140Z,101172.81
2023-03-03T11:30:27.331Z,101176.88
2023-03-03T11:33:05.321Z,101175.66
2023-03-03T11:35:47.430Z,101178.18
2023-03-03T11:38:31.164Z,101174.62
2023-03-03T11:41:08.035Z,101172.69
2023-03-03T11:43:47.170Z,101171.05
2023-03-03T11:46:18.556Z,101167.23
2023-03-03T11:48:54.676Z,101161.62
2023-03-03T11:51:47.634Z,101156.56
2023-03-03T11:54:20.616Z,101156.30
2023-03-03T11:56:49.092Z,101156.11
2023-03-03T11:59:17.474Z,101154.21
2023-03-03T12:02:28.076Z,101155.15
2023-03-03T12:05:00.373Z,101158.98
2023-03-03T12:07:52.437Z,101157.90
2023-03-03T12:10:39.347Z,101158.64
2023-03-03T12:13:19.498Z,101157.94
2023-03-03T12:16:09.749Z,101158.19
2023-03-03T12:19:12.883Z,101156.30
2023-03-03T12:21:54.571Z,101154.86
2023-03-03T12:24:29.000Z,101153.21
2023-03-03T12:27:03.006Z,101155.17
2023-03-03T12:29:47.043Z,101156.74
2023-03-03T12:32:30.919Z,101158.71
2023-03-03T12:35:15.143Z,101159.38
2023-03-03T12:37:54.977Z,101152.70
2023-03-03T12:40:35.954Z,101148.58
2023-03-03T12:43:09.449Z,101139.91
2023-03-03T12:45:46.835Z,101133.63
2023-03-03T12:48:43.887Z,101130.42
2023-03-03T12:51:28.140Z,101122.87
2023-03-03T12:54:19.454Z,101122.20
2023-03-03T12:56:58.905Z,101115.52
2023-03-03T13:00:11.511Z,101115.70
2023-03-03T13:02:51.550Z,101107.33
2023-03-03T13:05:25.150Z,101114.90
2023-03-03T13:08:18.540Z,101122.77
2023-03-03T13:10:53.445Z,101120.98
2023-03-03T13:13:30.320Z,101122.55
2023-03-03T13:16:06.424Z,101119.98
2023-03-03T13:18:47.860Z,101118.44
2023-03-03T13:21:28.372Z,101115.55
2023-03-03T13:24:22.810Z,101116.46
2023-03-03T13:27:27.537Z,101113.71
2023-03-03T13:29:58.369Z,101111.16
2023-03-03T13:32:32.527Z,101107.09
2023-03-03T13:35:34.156Z,101103.70
2023-03-03T13:38:03.437Z,101107.14
2023-03-03T13:40:43.857Z,101105.27
2023-03-03T13:43:28.963Z,101102.73
2023-03-03T13:46:21.924Z,101102.48
2023-03-03T13:49:03.916Z,101102.75
2023-03-03T13:51:48.678Z,101100.80
2023-03-03T13:54:29.936Z,101099.89
2023-03-03T13:57:23.227Z,101106.31
2023-03-03T14:00:29.579Z,101103.68
2023-03-03T14:03:03.706Z,101101.98
2023-03-03T14:05:39.522Z,101102.21
2023-03-03T14:08:25.766Z,101100.48
2023-03-03T14:11:24.280Z,101096.66
2023-03-03T14:14:12.267Z,101096.30
2023-03-03T14:16:51.068Z,101093.56
2023-03-03T14:19:24.684Z,101097.20
2023-03-03T14:22:00.616Z,101098.44
2023-03-03T14:24:29.525Z,101102.48
2023-03-03T14:26:59.733Z,101099.78
2023-03-03T14:29:27.854Z,101092.92
2023-03-03T14:32:20.912Z,101083.61
2023-03-03T14:34:59.597Z,101078.27
2023-03-03T14:37:30.493Z,101077.94
2023-03-03T14:40:21.640Z,101077.94
2023-03-03T14:42:52.782Z,101075.69
2023-03-03T14:45:32.225Z,101070.17
2023-03-03T14:48:10.628Z,101072.73
2023-03-03T14:50:41.569Z,101071.02
2023-03-03T14:53:18.800Z,101070.58
2023-03-03T14:55:49.316Z,101068.11
2023-03-03T14:58:26.767Z,101066.38
2023-03-03T15:01:18.205Z,101064.45
2023-03-03T15:03:49.789Z,101059.73
2023-03-03T15:06:53.851Z,101059.05
2023-03-03T15:09:41.943Z,101059.73
2023-03-03T15:12:37.517Z,101069.15
2023-03-03T15:15:05.690Z,101073.23
2023-03-03T15:17:56.683Z,101072.05
2023-03-03T15:20:33.762Z,101067.11
2023-03-03T15:23:17.601Z,101064.23
2023-03-03T15:26:02.876Z,101064.23
2023-03-03T15:28:40.160Z,101069.09
2023-03-03T15:31:14.097Z,101070.96
2023-03-03T15:34:04.661Z,101064.55
2023-03-03T15:36:49.426Z,101055.70
2023-03-03T15:39:23.849Z,101047.44
2023-03-03T15:41:59.490Z,101046.72
2023-03-03T15:44:36.774Z,101039.09
2023-03-03T15:47:23.482Z,101044.72
2023-03-03T15:49:57.592Z,101045.02
2023-03-03T15:53:06.213Z,101044.81
2023-03-03T15:55:43.298Z,101045.33
2023-03-03T15:58:11.364Z,101042.41
2023-03-03T16:00:45.576Z,101037.49
2023-03-03T16:03:46.724Z,101029.46
2023-03-03T16:06:24.211Z,101031.23
2023-03-03T16:09:17.164Z,101030.35
2023-03-03T16:11:47.178Z,101032.55
2023-03-03T16:14:33.706Z,101038.42
2023-03-03T16:17:26.837Z,101028.79
2023-03-03T16:20:16.925Z,101034.31
2023-03-03T16:23:13.153Z,101031.73
2023-03-03T16:25:55.558Z,101028.58
2023-03-03T16:28:44.005Z,101032.27
2023-03-03T16:31:34.155Z,101038.20
2023-03-03T16:34:40.361Z,101044.13
2023-03-03T16:37:11.607Z,101048.70
2023-03-03T16:40:01.078Z,101050.92
2023-03-03T16:42:33.858Z,101045.73
2023-03-03T16:45:15.656Z,101048.46
2023-03-03T16:47:59.192Z,101048.98
2023-03-03T16:50:46.694Z,101053.14
2023-03-03T16:53:43.144Z,101048.48
2023-03-03T16:56:18.701Z,101046.45
2023-03-03T16:59:16.772Z,101047.67
2023-03-03T17:02:03.981Z,101048.00
2023-03-03T17:04:37.411Z,101045.39
2023-03-03T17:07:20.495Z,101045.23
2023-03-03T17:10:28.320Z,101042.48
2023-03-03T17:13:13.371Z,101046.77
2023-03-03T17:15:47.786Z,101046.81
2023-03-03T17:18:38.704Z,101046.00
2023-03-03T17:21:36.447Z,101046.88
2023-03-03T17:24:10.867Z,101045.31
2023-03-03T17:26:56.137Z,101044.13
2023-03-03T17:29:51.347Z,101040.20
2023-03-03T17:32:53.826Z,101041.12
2023-03-03T17:35:38.215Z,101038.40
2023-03-03T17:38:45.774Z,101040.80
2023-03-03T17:41:19.985Z,101043.56
2023-03-03T17:44:16.214Z,101044.43
2023-03-03T17:46:55.215Z,101041.32
2023-03-03T17:49:58.138Z,101041.98
2023-03-03T17:52:52.513Z,101041.08
2023-03-03T17:55:33.887Z,101039.88
2023-03-03T17:58:14.437Z,101038.18
2023-03-03T18:01:01.064Z,101034.07
2023-03-03T18:03:37.536Z,101039.09
2023-03-03T18:06:26.901Z,101039.40
2023-03-03T18:09:33.780Z,101040.89
2023-03-03T18:12:37.179Z,101046.28
2023-03-03T18:15:24.400Z,101042.77
2023-03-03T18:17:59.540Z,101036.16
2023-03-03T18:20:48.601Z,101042.09
2023-03-03T18:23:42.384Z,101045.91
2023-03-03T18:26:28.973Z,101050.02
2023-03-03T18:29:19.059Z,101045.36
2023-03-03T18:31:50.793Z,101039.84
2023-03-03T18:34:18.985Z,101038.62
2023-03-03T18:36:57.929Z,101042.02
2023-03-03T18:39:46.316Z,101040.33
2023-03-03T18:42:17.807Z,101045.29
2023-03-03T18:44:46.182Z,101046.66
2023-03-03T18:47:15.276Z,101042.87
2023-03-03T18:49:49.849Z,101049.25
2023-03-03T18:52:21.804Z,101045.98
2023-03-03T18:55:09.384Z,101047.00
2023-03-03T18:57:38.311Z,101050.46
2023-03-03T19:00:36.759Z,101050.14
2023-03-03T19:03:59.096Z,101040.35
2023-03-03T19:06:36.382Z,101043.46
2023-03-03T19:09:06.308Z,101040.45
2023-03-03T19:11:50.959Z,101045.89
2023-03-03T19:14:29.158Z,101043.79
2023-03-03T19:16:59.223Z,101042.41
2023-03-03T19:19:38.100Z,101047.26
2023-03-03T19:22:26.164Z,101045.73
2023-03-03T19:25:08.343Z,101048.50
2023-03-03T19:27:39.066Z,101050.21
2023-03-03T19:30:25.978Z,101052.45
2023-03-03T19:33:12.991Z,101046.59
2023-03-03T19:36:00.142Z,101051.38
2023-03-03T19:38:55.222Z,101048.30
2023-03-03T19:42:01.072Z,101044.31
2023-03-03T19:44:50.541Z,101042.41
2023-03-03T19:47:36.950Z,101031.57
2023-03-03T19:50:34.608Z,101027.11
2023-03-03T19:53:21.312Z,101025.95
2023-03-03T19:55:55.227Z,101023.89
2023-03-03T19:58:32.716Z,101027.85
2023-03-03T20:01:29.919Z,101030.20
2023-03-03T20:04:16.362Z,101032.37
2023-03-03T20:07:30.115Z,101032.85
2023-03-03T20:10:11.691Z,101032.45
2023-03-03T20:12:47.708Z,101027.63
2023-03-03T20:15:21.403Z,101027.30
2023-03-03T20:18:03.644Z,101019.73
2023-03-03T20:20:47.279Z,101017.81
2023-03-03T20:23:30.097Z,101023.45
2023-03-03T20:26:29.919Z,101021.39
2023-03-03T20:29:19.893Z,101025.16
2023-03-03T20:31:53.139Z,101027.27
2023-03-03T20:34:30.469Z,101023.45
2023-03-03T20:37:04.417Z,101020.02
2023-03-03T20:39:53.132Z,101018.16
2023-03-03T20:42:30.107Z,101019.20
2023-03-03T20:45:29.351Z,101018.84
2023-03-03T20:48:22.467Z,101017.64
2023-03-03T20:50:53.518Z,101020.77
2023-03-03T20:53:46.673Z,101021.85
2023-03-03T20:56:20.905Z,101020.34
2023-03-03T20:58:55.513Z,101014.89
2023-03-03T21:01:53.985Z,101009.92
2023-03-03T21:04:22.230Z,101011.13
2023-03-03T21:06:50.742Z,101007.50
2023-03-03T21:09:31.622Z,101003.19
2023-03-03T21:12:01.834Z,100999.05
2023-03-03T21:14:33.998Z,100990.98
2023-03-03T21:17:24.193Z,100985.44
2023-03-03T21:19:52.359Z,100984.56
2023-03-03T21:22:20.733Z,100980.62
2023-03-03T21:24:58.019Z,100977.52
2023-03-03T21:27:31.925Z,100980.41
2023-03-03T21:30:15.362Z,100977.31
2023-03-03T21:32:48.269Z,100973.02
2023-03-03T21:35:19.172Z,100964.77
2023-03-03T21:37:56.235Z,100959.98
2023-03-03T21:40:29.549Z,100958.61
2023-03-03T21:42:59.979Z,100959.85
2023-03-03T21:45:30.295Z,100960.86
2023-03-03T21:48:00.251Z,100955.20
2023-03-03T21:50:32.962Z,100952.65
2023-03-03T21:53:01.568Z,100953.86
2023-03-03T21:55:29.744Z,100948.70
2023-03-03T21:57:58.016Z,100946.33
2023-03-03T22:00:26.612Z,100947.36
2023-03-03T22:02:55.603Z,100942.06
2023-03-03T22:05:23.760Z,100937.44
2023-03-03T22:07:51.866Z,100931.91
2023-03-03T22:10:20.004Z,100932.92
2023-03-03T22:12:48.073Z,100926.56
2023-03-03T22:15:16.347Z,100928.45
2023-03-03T22:17:45.545Z,100919.86
2023-03-03T22:20:17.404Z,100914.73
2023-03-03T22:22:46.705Z,100909.27
2023-03-03T22:25:14.975Z,100909.79
2023-03-03T22:27:43.038Z,100904.65
2023-03-03T22:30:12.143Z,100895.89
2023-03-03T22:32:40.316Z,100892.98
2023-03-03T22:35:09.192Z,100889.24
2023-03-03T22:37:37.381Z,100881.52
2023-03-03T22:40:06.163Z,100879.83
2023-03-03T22:42:34.340Z,100872.95
2023-03-03T22:45:02.509Z,100869.54
2023-03-03T22:47:30.889Z,100859.09
2023-03-03T22:49:59.569Z,100854.31
2023-03-03T22:52:27.951Z,100850.39
2023-03-03T22:54:58.281Z,100842.52
2023-03-03T22:57:26.752Z,100842.02
2023-03-03T22:59:54.928Z,100843.92
2023-03-03T23:02:23.103Z,100836.36
2023-03-03T23:04:58.398Z,100835.69
2023-03-03T23:07:28.342Z,100832.11
2023-03-03T23:09:56.930Z,100830.23
2023-03-03T23:12:25.093Z,100827.64
2023-03-03T23:14:53.266Z,100823.52
2023-03-03T23:17:21.335Z,100822.83
2023-03-03T23:19:49.712Z,100817.33
2023-03-03T23:22:17.893Z,100812.02
2023-03-03T23:24:46.056Z,100803.27
2023-03-03T23:27:14.329Z,100804.98
2023-03-03T23:29:42.503Z,100796.40
2023-03-03T23:32:11.317Z,100791.75
2023-03-03T23:34:39.669Z,100789.72
2023-03-03T23:37:07.838Z,100780.63
2023-03-03T23:39:36.319Z,100774.30
2023-03-03T23:42:05.003Z,100769.14
2023-03-03T23:44:33.075Z,100763.15
2023-03-03T23:47:01.351Z,100762.64
2023-03-03T23:49:29.524Z,100756.63
2023-03-03T23:51:57.693Z,100750.45
2023-03-03T23:54:26.382Z,100746.00
2023-03-03T23:56:54.857Z,100739.83
2023-03-03T23:59:23.233Z,100734.31
